Time;durP1;ratioP1;P1;durP2;ratioP2;P2;SDS_P1;SDS_P2;PMS_P1;PMS_P2;Temp;Humidity;BMP_temperature;BMP_pressure;BME280_temperature;BME280_humidity;BME280_pressure;Samples;Min_cycle;Max_cycle;Signal;HPM_P1;HPM_P2
2022/08/16 00:01:22;;;;;;;0.20;0.20;;;;;;;20.45;52.55;100346.06;5027487;28;20053;-68
2022/08/16 00:03:48;;;;;;;0.20;0.20;;;;;;;20.43;52.52;100338.06;5025885;28;20057;-70
2022/08/16 00:06:14;;;;;;;0.20;0.20;;;;;;;20.45;52.74;100340.53;5011025;28;20049;-69
2022/08/16 00:08:40;;;;;;;0.20;0.20;;;;;;;20.42;52.93;100338.41;5026841;28;20049;-70
2022/08/16 00:11:08;;;;;;;0.20;0.20;;;;;;;20.42;52.82;100342.00;5026040;28;20049;-69
2022/08/16 00:13:35;;;;;;;0.20;0.20;;;;;;;20.39;52.97;100340.69;5009642;28;20579;-69
2022/08/16 00:16:04;;;;;;;0.20;0.20;;;;;;;20.38;53.06;100341.84;5028072;28;20079;-69
2022/08/16 00:18:30;;;;;;;0.20;0.20;;;;;;;20.38;53.10;100343.78;5028920;28;20473;-69
2022/08/16 00:20:57;;;;;;;0.20;0.20;;;;;;;20.35;52.66;100339.72;5027058;28;20049;-67
2022/08/16 00:23:23;;;;;;;0.20;0.20;;;;;;;20.33;53.10;100347.56;5010520;28;20060;-69
2022/08/16 00:25:49;;;;;;;0.20;0.20;;;;;;;20.29;53.12;100354.91;5026976;28;20057;-70
2022/08/16 00:28:15;;;;;;;0.20;0.20;;;;;;;20.26;52.87;100350.81;5031391;28;20132;-69
2022/08/16 00:30:41;;;;;;;0.20;0.20;;;;;;;20.25;52.91;100346.41;5029383;28;20045;-68
2022/08/16 00:33:09;;;;;;;0.30;0.20;;;;;;;20.26;52.85;100336.94;5026198;28;20050;-69
2022/08/16 00:35:36;;;;;;;0.20;0.20;;;;;;;20.29;52.54;100348.53;5025663;28;20073;-69
2022/08/16 00:38:02;;;;;;;;;;;;;;;20.30;52.42;100344.63;5025300;28;20042;-70
2022/08/16 00:40:33;;;;;;;0.10;0.10;;;;;;;20.27;52.26;100341.34;5029318;28;19979;-70
2022/08/16 00:43:00;;;;;;;0.20;0.20;;;;;;;20.25;52.78;100343.63;5026586;28;20054;-70
2022/08/16 00:45:33;;;;;;;0.10;0.10;;;;;;;20.23;52.77;100348.69;5025970;28;20084;-69
2022/08/16 00:48:02;;;;;;;0.25;0.20;;;;;;;20.22;52.97;100347.06;5025109;28;20572;-74
2022/08/16 00:50:32;;;;;;;0.20;0.20;;;;;;;20.22;52.87;100351.81;5025129;28;20140;-73
2022/08/16 00:52:58;;;;;;;0.20;0.20;;;;;;;20.21;53.10;100361.25;5026114;28;20059;-73
2022/08/16 00:55:26;;;;;;;0.20;0.20;;;;;;;20.21;52.93;100350.16;5023955;28;20480;-74
2022/08/16 00:57:55;;;;;;;0.20;0.20;;;;;;;20.21;52.96;100352.94;5027159;28;20045;-72
2022/08/16 01:00:24;;;;;;;0.20;0.20;;;;;;;20.17;52.67;100355.56;5026683;28;20076;-72
2022/08/16 01:02:50;;;;;;;0.20;0.20;;;;;;;20.11;53.10;100348.53;5025288;28;20045;-75
2022/08/16 01:05:18;;;;;;;0.20;0.20;;;;;;;20.06;53.36;100354.25;5027171;28;20037;-74
2022/08/16 01:07:46;;;;;;;0.20;0.20;;;;;;;20.03;53.60;100350.16;5007018;28;20559;-73
2022/08/16 01:10:12;;;;;;;0.38;0.30;;;;;;;20.04;53.81;100354.56;5026767;28;20432;-69
2022/08/16 01:12:38;;;;;;;0.20;0.20;;;;;;;20.04;53.54;100360.13;5024894;28;20060;-70
2022/08/16 01:15:05;;;;;;;0.70;0.30;;;;;;;20.02;53.54;100359.63;5025008;28;20104;-70
2022/08/16 01:17:32;;;;;;;;;;;;;;;20.01;53.66;100354.44;5025608;28;20053;-70
2022/08/16 01:20:01;;;;;;;0.20;0.20;;;;;;;19.96;53.37;100370.06;5027332;28;19929;-70
2022/08/16 01:22:40;;;;;;;0.20;0.20;;;;;;;19.93;53.68;100373.50;5007837;28;20042;-69
2022/08/16 01:25:12;;;;;;;0.17;0.17;;;;;;;19.90;53.91;100371.34;4659145;28;10000296;-70
2022/08/16 01:27:44;;;;;;;0.20;0.20;;;;;;;19.87;53.89;100373.94;5022229;28;20049;-71
2022/08/16 01:30:14;;;;;;;0.20;0.20;;;;;;;19.85;53.93;100368.75;5000781;28;20463;-69
2022/08/16 01:32:43;;;;;;;0.28;0.20;;;;;;;19.85;54.01;100371.50;5039250;28;20049;-70
2022/08/16 01:35:16;;;;;;;0.20;0.20;;;;;;;19.82;53.89;100367.41;5036654;28;20045;-71
2022/08/16 01:37:45;;;;;;;0.40;0.30;;;;;;;19.76;54.00;100374.28;5021898;28;20068;-69
2022/08/16 01:40:16;;;;;;;0.20;0.20;;;;;;;19.72;54.58;100366.91;5023517;28;20635;-70
2022/08/16 01:42:44;;;;;;;0.20;0.20;;;;;;;19.66;54.65;100369.81;5005706;28;20045;-69
2022/08/16 01:45:10;;;;;;;0.20;0.20;;;;;;;19.62;54.71;100366.06;5018678;28;20052;-70
2022/08/16 01:47:38;;;;;;;0.20;0.20;;;;;;;19.56;55.14;100370.16;5009908;28;20037;-68
2022/08/16 01:50:06;;;;;;;0.17;0.17;;;;;;;19.50;55.00;100376.97;5026249;28;20056;-70
